Terminal Aerodrome Forecast
Issued by NWS

Current Version | Previous Version | Text Only | Print | Product List | Glossary On
Versions: 1 2 3 4 5 6 7 8 9 10 11 12 13 14 15 16 17 18 19 20 21 22 23 24 25 26 27 28 29 30
000 FTUS41 KBOX 271720 TAFBED TAF KBED 271720Z 2718/2818 VRB03KT P6SM VCSH BKN070 FM272300 21006KT P6SM VCSH BKN045 FM280200 24004KT P6SM SCT045 FM281300 29010KT P6SM SKC FM281700 29010G18KT P6SM SCT045=

USA.gov is the U.S. government's official web portal to all federal, state and local government web resources and services.